createdAt,value
2023-02-25T00:01:13.269Z,99.90
2023-02-25T00:03:40.855Z,99.90
2023-02-25T00:06:16.147Z,99.90
2023-02-25T00:08:45.416Z,99.90
2023-02-25T00:11:13.537Z,99.90
2023-02-25T00:13:42.444Z,99.90
2023-02-25T00:16:10.450Z,99.90
2023-02-25T00:21:09.653Z,99.90
2023-02-25T00:26:06.767Z,99.90
2023-02-25T00:28:34.494Z,99.90
2023-02-25T00:31:05.547Z,99.90
2023-02-25T00:33:32.294Z,99.90
2023-02-25T00:40:54.498Z,99.90
2023-02-25T00:45:48.777Z,99.90
2023-02-25T00:48:15.474Z,99.90
2023-02-25T00:50:42.131Z,99.90
2023-02-25T00:53:08.807Z,99.90
2023-02-25T01:15:23.013Z,99.90
2023-02-25T01:22:49.040Z,99.90
2023-02-25T01:27:44.432Z,99.90
2023-02-25T01:45:29.346Z,99.90
2023-02-25T01:48:19.414Z,99.90
2023-02-25T01:50:56.490Z,99.90
2023-02-25T01:53:28.111Z,99.90
2023-02-25T01:55:57.687Z,99.90
2023-02-25T01:58:26.853Z,99.90
2023-02-25T02:00:55.465Z,99.90
2023-02-25T02:03:34.283Z,99.90
2023-02-25T02:06:15.358Z,99.90
2023-02-25T02:08:45.480Z,99.90
2023-02-25T02:11:12.132Z,99.90
2023-02-25T02:13:43.603Z,99.90
2023-02-25T02:16:25.771Z,99.90
2023-02-25T02:19:22.301Z,99.90
2023-02-25T02:21:52.025Z,99.90
2023-02-25T02:24:40.301Z,99.90
2023-02-25T02:27:14.460Z,99.90
2023-02-25T02:30:05.227Z,99.90
2023-02-25T02:32:50.561Z,99.90
2023-02-25T02:35:32.596Z,99.90
2023-02-25T02:38:12.823Z,99.90
2023-02-25T02:40:58.088Z,99.90
2023-02-25T02:43:40.248Z,99.90
2023-02-25T02:46:10.707Z,99.90
2023-02-25T02:49:03.057Z,99.90
2023-02-25T02:51:35.319Z,99.90
2023-02-25T02:54:05.935Z,99.90
2023-02-25T02:56:35.800Z,99.90
2023-02-25T02:59:15.121Z,99.90
2023-02-25T03:01:47.537Z,99.90
2023-02-25T03:04:20.005Z,99.90
2023-02-25T03:06:50.495Z,99.90
2023-02-25T03:09:27.499Z,99.90
2023-02-25T03:11:54.203Z,99.90
2023-02-25T03:14:20.870Z,99.90
2023-02-25T03:17:32.033Z,99.90
2023-02-25T03:20:22.210Z,99.90
2023-02-25T03:22:51.685Z,99.90
2023-02-25T03:25:32.762Z,99.90
2023-02-25T03:28:04.627Z,99.90
2023-02-25T03:30:39.146Z,99.90
2023-02-25T03:33:08.832Z,99.90
2023-02-25T03:35:37.455Z,99.90
2023-02-25T03:38:20.783Z,99.90
2023-02-25T03:40:49.823Z,99.90
2023-02-25T03:43:22.534Z,99.90
2023-02-25T03:45:49.421Z,99.90
2023-02-25T03:48:17.453Z,99.90
2023-02-25T03:50:50.769Z,99.90
2023-02-25T03:53:17.702Z,99.90
2023-02-25T03:55:44.656Z,99.90
2023-02-25T03:58:11.334Z,99.90
2023-02-25T04:00:40.781Z,99.90
2023-02-25T04:03:07.448Z,99.90
2023-02-25T04:05:35.926Z,99.90
2023-02-25T04:08:02.631Z,99.90
2023-02-25T04:10:29.373Z,99.90
2023-02-25T04:12:56.031Z,99.90
2023-02-25T04:15:22.924Z,99.90
2023-02-25T04:17:49.606Z,99.90
2023-02-25T04:20:17.232Z,99.90
2023-02-25T04:22:43.953Z,99.90
2023-02-25T04:25:10.797Z,99.90
2023-02-25T04:27:37.640Z,99.90
2023-02-25T04:30:05.673Z,99.90
2023-02-25T04:32:32.429Z,99.90
2023-02-25T04:35:03.171Z,99.90
2023-02-25T04:37:30.612Z,99.90
2023-02-25T04:39:57.551Z,99.90
2023-02-25T04:42:24.265Z,99.90
2023-02-25T04:44:50.941Z,99.90
2023-02-25T04:47:19.010Z,99.90
2023-02-25T04:49:45.951Z,99.90
2023-02-25T04:52:16.310Z,99.90
2023-02-25T04:54:43.121Z,99.90
2023-02-25T04:57:11.638Z,99.90
2023-02-25T04:59:38.641Z,99.90
2023-02-25T05:02:06.184Z,99.90
2023-02-25T05:04:33.527Z,99.90
2023-02-25T05:07:00.907Z,99.90
2023-02-25T05:09:27.635Z,99.90
2023-02-25T05:11:54.281Z,99.90
2023-02-25T05:14:20.947Z,99.90
2023-02-25T05:16:47.760Z,99.90
2023-02-25T05:19:21.314Z,99.90
2023-02-25T05:21:51.955Z,99.90
2023-02-25T05:24:19.499Z,99.90
2023-02-25T05:26:46.281Z,99.90
2023-02-25T05:29:13.146Z,99.90
2023-02-25T05:31:40.586Z,99.90
2023-02-25T05:34:07.345Z,99.90
2023-02-25T05:36:34.220Z,99.90
2023-02-25T05:39:02.802Z,99.90
2023-02-25T05:41:30.564Z,99.90
2023-02-25T05:43:58.124Z,99.90
2023-02-25T05:46:26.756Z,99.90
2023-02-25T05:48:54.253Z,99.90
2023-02-25T05:51:23.403Z,99.90
2023-02-25T05:53:51.702Z,99.90
2023-02-25T05:56:22.314Z,99.90
2023-02-25T05:58:49.447Z,99.90
2023-02-25T06:01:20.052Z,99.90
2023-02-25T06:03:48.575Z,99.90
2023-02-25T06:06:17.881Z,99.90
2023-02-25T06:08:44.873Z,99.90
2023-02-25T06:11:15.983Z,99.90
2023-02-25T06:13:42.689Z,99.90
2023-02-25T06:16:09.493Z,99.90
2023-02-25T06:18:39.722Z,99.90
2023-02-25T06:21:08.076Z,99.90
2023-02-25T06:23:36.953Z,99.90
2023-02-25T06:26:05.114Z,99.90
2023-02-25T06:28:31.977Z,99.90
2023-02-25T06:30:58.700Z,99.90
2023-02-25T06:33:25.448Z,99.90
2023-02-25T06:35:53.363Z,99.90
2023-02-25T06:38:20.612Z,99.90
2023-02-25T06:40:48.214Z,99.90
2023-02-25T06:43:15.571Z,99.90
2023-02-25T06:45:42.835Z,99.90
2023-02-25T06:48:09.794Z,99.90
2023-02-25T06:50:39.647Z,99.90
2023-02-25T06:53:07.428Z,99.90
2023-02-25T06:55:34.254Z,99.90
2023-02-25T06:58:00.895Z,99.90
2023-02-25T07:00:27.697Z,99.90
2023-02-25T07:02:54.372Z,99.90
2023-02-25T07:05:21.047Z,99.90
2023-02-25T07:07:47.718Z,99.90
2023-02-25T07:10:14.473Z,99.90
2023-02-25T07:12:41.137Z,99.90
2023-02-25T07:15:08.690Z,99.90
2023-02-25T07:17:35.342Z,99.90
2023-02-25T07:20:02.009Z,99.90
2023-02-25T07:22:28.745Z,99.90
2023-02-25T07:24:55.494Z,99.90
2023-02-25T07:27:22.524Z,99.90
2023-02-25T07:29:49.231Z,99.90
2023-02-25T07:32:16.244Z,99.90
2023-02-25T07:34:43.171Z,99.90
2023-02-25T07:37:10.079Z,99.90
2023-02-25T07:39:36.845Z,99.90
2023-02-25T07:42:03.684Z,99.90
2023-02-25T07:44:30.355Z,99.90
2023-02-25T07:46:57.022Z,99.90
2023-02-25T07:49:23.711Z,99.90
2023-02-25T07:56:50.796Z,99.90
2023-02-25T07:59:18.460Z,99.90
2023-02-25T08:01:45.473Z,99.90
2023-02-25T08:04:12.380Z,99.90
2023-02-25T08:06:41.113Z,99.90
2023-02-25T08:09:12.172Z,99.90
2023-02-25T08:11:39.820Z,99.90
2023-02-25T08:14:06.878Z,99.90
2023-02-25T08:16:34.269Z,99.90
2023-02-25T08:19:01.224Z,99.90
2023-02-25T08:21:27.896Z,99.90
2023-02-25T08:23:55.029Z,99.90
2023-02-25T08:26:22.902Z,99.90
2023-02-25T08:31:17.590Z,99.90
2023-02-25T08:33:52.525Z,99.90
2023-02-25T08:36:22.704Z,99.90
2023-02-25T08:38:50.526Z,99.90
2023-02-25T08:41:18.835Z,99.90
2023-02-25T08:43:50.050Z,99.90
2023-02-25T08:46:17.181Z,99.90
2023-02-25T08:51:11.834Z,99.90
2023-02-25T08:53:40.588Z,99.90
2023-02-25T08:56:09.132Z,99.90
2023-02-25T08:58:36.317Z,99.90
2023-02-25T09:01:08.883Z,99.90
2023-02-25T09:03:35.747Z,99.90
2023-02-25T09:06:02.490Z,99.90
2023-02-25T09:10:58.122Z,99.90
2023-02-25T09:13:24.799Z,99.90
2023-02-25T09:15:58.597Z,99.90
2023-02-25T09:18:25.883Z,99.90
2023-02-25T09:25:47.485Z,99.90
2023-02-25T09:30:44.421Z,99.90
2023-02-25T09:38:07.482Z,99.90
2023-02-25T09:40:34.319Z,99.90
2023-02-25T09:43:22.764Z,99.90
2023-02-25T09:45:51.226Z,99.90
2023-02-25T09:48:25.961Z,99.90
2023-02-25T09:51:03.960Z,99.90
2023-02-25T09:53:56.663Z,99.90
2023-02-25T09:56:26.596Z,99.90
2023-02-25T09:59:02.393Z,99.90
2023-02-25T10:01:39.219Z,99.90
2023-02-25T10:04:20.842Z,99.90
2023-02-25T10:06:50.174Z,99.90
2023-02-25T10:09:39.675Z,99.90
2023-02-25T10:12:35.804Z,99.90
2023-02-25T10:15:20.448Z,99.90
2023-02-25T10:18:04.927Z,99.90
2023-02-25T10:20:43.614Z,99.90
2023-02-25T10:23:25.293Z,99.90
2023-02-25T10:26:17.914Z,99.90
2023-02-25T10:28:49.231Z,99.90
2023-02-25T10:31:19.939Z,99.90
2023-02-25T10:33:49.743Z,99.90
2023-02-25T10:36:19.681Z,99.90
2023-02-25T10:38:52.088Z,99.90
2023-02-25T10:41:22.642Z,99.90
2023-02-25T10:43:51.203Z,99.90
2023-02-25T10:46:23.415Z,99.90
2023-02-25T10:49:01.800Z,99.90
2023-02-25T10:51:29.708Z,99.90
2023-02-25T10:54:01.156Z,99.90
2023-02-25T10:56:39.845Z,99.90
2023-02-25T10:59:25.263Z,99.90
2023-02-25T11:01:53.289Z,99.90
2023-02-25T11:04:25.005Z,99.90
2023-02-25T11:06:51.719Z,99.90
2023-02-25T11:09:21.081Z,99.90
2023-02-25T11:11:53.590Z,99.90
2023-02-25T11:14:28.189Z,99.90
2023-02-25T11:17:02.604Z,99.90
2023-02-25T11:19:32.137Z,99.90
2023-02-25T11:22:06.114Z,99.90
2023-02-25T11:24:38.721Z,99.90
2023-02-25T11:27:07.721Z,99.90
2023-02-25T11:29:41.350Z,99.90
2023-02-25T11:32:21.570Z,99.90
2023-02-25T11:34:56.024Z,99.90
2023-02-25T11:37:49.801Z,99.90
2023-02-25T11:40:25.143Z,99.90
2023-02-25T11:43:06.927Z,99.90
2023-02-25T11:45:39.235Z,99.90
2023-02-25T11:48:18.061Z,99.90
2023-02-25T11:50:56.061Z,99.90
2023-02-25T11:53:45.233Z,99.90
2023-02-25T11:56:48.505Z,99.90
2023-02-25T11:59:29.189Z,99.90
2023-02-25T12:02:31.264Z,99.90
2023-02-25T12:07:55.450Z,99.90
2023-02-25T12:10:42.089Z,99.90
2023-02-25T12:13:30.494Z,99.90
2023-02-25T12:16:21.302Z,99.90
2023-02-25T12:19:07.703Z,99.90
2023-02-25T12:21:59.150Z,99.90
2023-02-25T12:24:28.810Z,99.90
2023-02-25T12:27:01.353Z,99.90
2023-02-25T12:32:22.917Z,99.90
2023-02-25T12:35:15.403Z,99.90
2023-02-25T12:40:34.300Z,99.90
2023-02-25T12:45:57.740Z,99.90
2023-02-25T12:48:44.537Z,99.90
2023-02-25T12:51:32.309Z,99.90
2023-02-25T12:54:25.161Z,99.90
2023-02-25T12:57:19.782Z,99.90
2023-02-25T13:00:09.380Z,99.90
2023-02-25T13:02:44.843Z,99.90
2023-02-25T13:05:52.253Z,99.90
2023-02-25T13:08:43.593Z,99.90
2023-02-25T13:11:27.612Z,99.90
2023-02-25T13:14:12.106Z,99.90
2023-02-25T13:19:36.869Z,99.90
2023-02-25T13:22:42.936Z,99.90
2023-02-25T13:25:10.670Z,99.90
2023-02-25T13:28:15.289Z,99.90
2023-02-25T13:30:53.813Z,99.90
2023-02-25T13:33:46.090Z,99.90
2023-02-25T13:41:23.517Z,99.90
2023-02-25T13:44:27.574Z,99.90
2023-02-25T13:47:10.850Z,99.90
2023-02-25T13:49:55.781Z,99.90
2023-02-25T13:52:25.387Z,99.90
2023-02-25T13:55:10.033Z,99.90
2023-02-25T13:57:50.354Z,99.90
2023-02-25T14:00:30.648Z,99.90
2023-02-25T14:03:29.001Z,99.90
2023-02-25T14:06:35.709Z,99.90
2023-02-25T14:09:42.889Z,99.90
2023-02-25T14:12:41.173Z,99.90
2023-02-25T14:15:44.867Z,99.90
2023-02-25T14:18:12.167Z,99.90
2023-02-25T14:20:53.945Z,99.90
2023-02-25T14:23:50.889Z,99.90
2023-02-25T14:26:26.715Z,99.90
2023-02-25T14:29:20.471Z,99.90
2023-02-25T14:32:25.111Z,99.90
2023-02-25T14:34:56.161Z,63.20
2023-02-25T14:37:47.762Z,27.30
2023-02-25T14:41:09.379Z,1.00
2023-02-25T14:43:37.675Z,1.00
2023-02-25T14:46:07.189Z,1.00
2023-02-25T14:48:58.908Z,1.00
2023-02-25T14:51:31.538Z,1.00
2023-02-25T14:54:11.013Z,1.00
2023-02-25T14:56:49.366Z,99.90
2023-02-25T14:59:37.117Z,99.90
2023-02-25T15:02:14.196Z,99.90
2023-02-25T15:05:08.403Z,99.90
2023-02-25T15:07:52.865Z,99.90
2023-02-25T15:10:32.437Z,99.90
2023-02-25T15:13:17.904Z,99.90
2023-02-25T15:16:20.850Z,99.90
2023-02-25T15:18:57.818Z,1.00
2023-02-25T15:21:37.606Z,99.90
2023-02-25T15:24:10.402Z,99.90
2023-02-25T15:26:48.547Z,99.90
2023-02-25T15:29:27.133Z,99.90
2023-02-25T15:32:09.194Z,99.90
2023-02-25T15:37:22.760Z,99.90
2023-02-25T15:40:02.037Z,99.90
2023-02-25T15:42:53.918Z,99.90
2023-02-25T15:45:27.343Z,99.90
2023-02-25T15:48:17.548Z,99.90
2023-02-25T15:53:21.071Z,1.00
2023-02-25T15:55:54.747Z,1.00
2023-02-25T15:58:24.424Z,1.00
2023-02-25T16:01:00.887Z,1.00
2023-02-25T16:03:36.767Z,1.00
2023-02-25T16:06:24.583Z,1.00
2023-02-25T16:09:00.253Z,9.60
2023-02-25T16:11:30.009Z,1.00
2023-02-25T16:13:58.170Z,1.00
2023-02-25T16:16:25.665Z,8.50
2023-02-25T16:18:55.512Z,99.90
2023-02-25T16:21:26.370Z,99.90
2023-02-25T16:23:54.487Z,99.90
2023-02-25T16:26:45.635Z,99.90
2023-02-25T16:29:15.362Z,99.90
2023-02-25T16:32:21.562Z,1.00
2023-02-25T16:35:09.825Z,1.00
2023-02-25T16:37:57.162Z,1.00
2023-02-25T16:40:50.156Z,1.00
2023-02-25T16:43:28.408Z,1.00
2023-02-25T16:46:06.703Z,1.00
2023-02-25T16:48:37.616Z,1.00
2023-02-25T16:51:10.524Z,1.00
2023-02-25T16:53:44.109Z,1.00
2023-02-25T16:56:20.011Z,1.00
2023-02-25T16:59:06.365Z,1.00
2023-02-25T17:01:35.446Z,1.00
2023-02-25T17:04:14.062Z,1.00
2023-02-25T17:06:41.226Z,1.00
2023-02-25T17:11:35.284Z,1.00
2023-02-25T17:14:04.477Z,1.00
2023-02-25T17:16:36.543Z,1.00
2023-02-25T17:19:07.167Z,1.00
2023-02-25T17:21:44.262Z,1.00
2023-02-25T17:24:17.222Z,1.00
2023-02-25T17:26:47.272Z,1.00
2023-02-25T17:29:16.414Z,1.00
2023-02-25T17:31:49.258Z,1.00
2023-02-25T17:34:21.456Z,1.00
2023-02-25T17:36:49.037Z,1.00
2023-02-25T17:39:19.980Z,1.00
2023-02-25T17:41:47.923Z,1.00
2023-02-25T17:44:36.469Z,1.00
2023-02-25T17:47:05.365Z,1.00
2023-02-25T17:49:34.456Z,1.00
2023-02-25T17:52:07.948Z,1.00
2023-02-25T17:54:37.367Z,1.00
2023-02-25T17:57:14.065Z,1.00
2023-02-25T17:59:43.650Z,30.00
2023-02-25T18:02:38.601Z,97.00
2023-02-25T18:05:08.392Z,99.90
2023-02-25T18:07:35.135Z,99.90
2023-02-25T18:10:02.208Z,99.90
2023-02-25T18:12:35.432Z,99.90
2023-02-25T18:15:05.352Z,99.90
2023-02-25T18:17:36.452Z,99.90
2023-02-25T18:20:08.567Z,99.90
2023-02-25T18:22:47.514Z,99.90
2023-02-25T18:25:32.448Z,99.90
2023-02-25T18:27:59.161Z,99.90
2023-02-25T18:30:28.135Z,99.90
2023-02-25T18:35:25.394Z,99.90
2023-02-25T18:37:54.181Z,99.90
2023-02-25T18:40:30.907Z,99.90
2023-02-25T18:42:59.096Z,99.90
2023-02-25T18:45:28.215Z,99.90
2023-02-25T18:47:56.908Z,99.90
2023-02-25T18:50:24.704Z,99.90
2023-02-25T18:52:51.527Z,99.90
2023-02-25T18:55:29.586Z,99.90
2023-02-25T18:57:56.495Z,99.90
2023-02-25T19:00:25.196Z,99.90
2023-02-25T19:02:55.133Z,99.90
2023-02-25T19:05:23.366Z,99.90
2023-02-25T19:07:50.311Z,99.90
2023-02-25T19:10:19.850Z,99.90
2023-02-25T19:12:49.572Z,99.90
2023-02-25T19:15:19.338Z,99.90
2023-02-25T19:17:46.716Z,99.90
2023-02-25T19:20:14.917Z,99.90
2023-02-25T19:22:46.542Z,99.90
2023-02-25T19:25:22.150Z,99.90
2023-02-25T19:27:49.926Z,99.90
2023-02-25T19:30:18.177Z,99.90
2023-02-25T19:35:12.579Z,99.90
2023-02-25T19:37:40.846Z,99.90
2023-02-25T19:40:11.559Z,99.90
2023-02-25T19:42:39.455Z,99.90
2023-02-25T19:45:08.817Z,99.90
2023-02-25T19:47:35.825Z,99.90
2023-02-25T19:50:03.808Z,99.90
2023-02-25T19:52:31.521Z,99.90
2023-02-25T19:54:58.179Z,99.90
2023-02-25T19:57:24.890Z,99.90
2023-02-25T19:59:51.588Z,99.90
2023-02-25T20:02:18.336Z,99.90
2023-02-25T20:04:45.000Z,99.90
2023-02-25T20:07:11.881Z,99.90
2023-02-25T20:09:38.712Z,99.90
2023-02-25T20:12:05.915Z,99.90
2023-02-25T20:14:33.202Z,99.90
2023-02-25T20:17:01.066Z,99.90
2023-02-25T20:19:32.849Z,99.90
2023-02-25T20:22:01.405Z,99.90
2023-02-25T20:24:29.234Z,99.90
2023-02-25T20:26:56.519Z,99.90
2023-02-25T20:29:23.317Z,99.90
2023-02-25T20:31:50.154Z,99.90
2023-02-25T20:34:19.990Z,99.90
2023-02-25T20:37:06.998Z,99.90
2023-02-25T20:39:39.400Z,99.90
2023-02-25T20:42:09.700Z,99.90
2023-02-25T20:44:36.549Z,99.90
2023-02-25T20:47:03.592Z,99.90
2023-02-25T20:49:31.012Z,99.90
2023-02-25T20:51:58.291Z,99.90
2023-02-25T20:54:25.056Z,99.90
2023-02-25T20:56:52.044Z,99.90
2023-02-25T20:59:18.995Z,99.90
2023-02-25T21:01:45.761Z,99.90
2023-02-25T21:04:12.547Z,99.90
2023-02-25T21:06:39.365Z,99.90
2023-02-25T21:09:07.185Z,99.90
2023-02-25T21:11:34.319Z,99.90
2023-02-25T21:14:01.168Z,99.90
2023-02-25T21:16:28.176Z,99.90
2023-02-25T21:18:57.683Z,99.90
2023-02-25T21:21:26.732Z,99.90
2023-02-25T21:23:53.686Z,99.90
2023-02-25T21:26:20.505Z,99.90
2023-02-25T21:28:47.287Z,99.90
2023-02-25T21:31:15.792Z,99.90
2023-02-25T21:33:42.862Z,99.90
2023-02-25T21:36:11.140Z,99.90
2023-02-25T21:38:38.389Z,99.90
2023-02-25T21:41:08.053Z,99.90
2023-02-25T21:43:34.997Z,99.90
2023-02-25T21:46:03.411Z,99.90
2023-02-25T21:48:31.468Z,99.90
2023-02-25T21:50:59.179Z,99.90
2023-02-25T21:53:27.514Z,99.90
2023-02-25T21:56:06.588Z,99.90
2023-02-25T21:58:33.363Z,99.90
2023-02-25T22:01:10.670Z,99.90
2023-02-25T22:03:37.376Z,99.90
2023-02-25T22:06:04.325Z,99.90
2023-02-25T22:08:31.105Z,99.90
2023-02-25T22:10:57.855Z,99.90
2023-02-25T22:13:25.832Z,99.90
2023-02-25T22:15:52.567Z,99.90
2023-02-25T22:18:19.331Z,99.90
2023-02-25T22:20:45.991Z,99.90
2023-02-25T22:23:12.650Z,99.90
2023-02-25T22:25:39.351Z,99.90
2023-02-25T22:28:05.987Z,99.90
2023-02-25T22:30:32.698Z,99.90
2023-02-25T22:32:59.697Z,99.90
2023-02-25T22:35:26.453Z,99.90
2023-02-25T22:37:53.149Z,99.90
2023-02-25T22:40:19.836Z,99.90
2023-02-25T22:42:46.515Z,99.90
2023-02-25T22:45:13.248Z,99.90
2023-02-25T22:47:40.604Z,99.90
2023-02-25T22:50:07.764Z,99.90
2023-02-25T22:52:34.466Z,99.90
2023-02-25T22:55:01.153Z,99.90
2023-02-25T22:57:27.862Z,99.90
2023-02-25T22:59:54.512Z,99.90
2023-02-25T23:02:21.185Z,99.90
2023-02-25T23:04:47.858Z,99.90
2023-02-25T23:07:14.557Z,99.90
2023-02-25T23:09:41.298Z,99.90
2023-02-25T23:12:07.942Z,99.90
2023-02-25T23:14:35.824Z,99.90
2023-02-25T23:17:02.709Z,99.90
2023-02-25T23:19:29.401Z,99.90
2023-02-25T23:21:56.214Z,99.90
2023-02-25T23:24:23.400Z,99.90
2023-02-25T23:26:53.555Z,99.90
2023-02-25T23:29:20.545Z,99.90
2023-02-25T23:31:49.196Z,99.90
2023-02-25T23:34:25.812Z,99.90
2023-02-25T23:36:55.955Z,99.90
2023-02-25T23:39:23.297Z,99.90
2023-02-25T23:41:49.983Z,99.90
2023-02-25T23:44:16.763Z,99.90
2023-02-25T23:46:44.008Z,99.90
2023-02-25T23:49:15.181Z,99.90
2023-02-25T23:51:43.660Z,99.90
2023-02-25T23:54:13.760Z,99.90
2023-02-25T23:56:40.504Z,99.90
2023-02-25T23:59:08.012Z,99.90
